Time;durP1;ratioP1;P1;durP2;ratioP2;P2;SDS_P1;SDS_P2;PMS_P1;PMS_P2;Temp;Humidity;BMP_temperature;BMP_pressure;BME280_temperature;BME280_humidity;BME280_pressure;Samples;Min_cycle;Max_cycle;Signal;HPM_P1;HPM_P2
2023/12/06 00:01:10;;;;;;;2.97;2.20;;;;;;;19.30;46.60;100653.97;4637338;30;20070;-62
2023/12/06 00:03:37;;;;;;;4.05;2.40;;;;;;;19.30;46.34;100661.19;4637633;30;20070;-61
2023/12/06 00:06:05;;;;;;;3.70;2.25;;;;;;;19.29;46.47;100656.81;4636757;30;20066;-64
2023/12/06 00:08:34;;;;;;;3.95;2.00;;;;;;;19.29;46.41;100656.81;4636436;30;20423;-64
2023/12/06 00:11:01;;;;;;;2.67;1.95;;;;;;;19.28;46.33;100655.94;4637552;30;20051;-65
2023/12/06 00:13:28;;;;;;;3.95;1.75;;;;;;;19.27;46.18;100660.47;4637001;30;20058;-65
2023/12/06 00:15:56;;;;;;;2.88;2.10;;;;;;;19.27;46.04;100665.81;4635832;30;20067;-64
2023/12/06 00:18:23;;;;;;;2.55;1.83;;;;;;;19.26;45.99;100658.78;4636198;30;20063;-65
2023/12/06 00:20:51;;;;;;;4.20;2.25;;;;;;;19.25;46.20;100665.13;4636503;30;20062;-65
2023/12/06 00:23:18;;;;;;;2.72;2.13;;;;;;;19.24;45.96;100658.06;4637285;30;20059;-65
2023/12/06 00:25:46;;;;;;;3.97;2.10;;;;;;;19.24;46.04;100666.13;4635340;30;20086;-62
2023/12/06 00:28:13;;;;;;;3.10;2.40;;;;;;;19.24;45.93;100660.75;4635831;30;20055;-62
2023/12/06 00:30:41;;;;;;;2.97;2.17;;;;;;;19.24;45.98;100660.75;4636862;30;20500;-62
2023/12/06 00:33:08;;;;;;;3.15;2.22;;;;;;;19.22;45.94;100662.72;4637347;30;20058;-62
2023/12/06 00:35:36;;;;;;;3.55;2.42;;;;;;;19.23;46.04;100669.78;4636225;30;20062;-64
2023/12/06 00:38:03;;;;;;;2.95;1.88;;;;;;;19.22;45.81;100672.59;4635545;30;20073;-61
2023/12/06 00:40:30;;;;;;;2.33;1.70;;;;;;;19.22;45.77;100664.53;4636660;30;20047;-62
2023/12/06 00:42:58;;;;;;;3.85;2.55;;;;;;;19.21;45.85;100669.06;4637192;30;20058;-61
2023/12/06 00:45:25;;;;;;;3.20;1.95;;;;;;;19.21;45.81;100669.06;4635602;30;20062;-61
2023/12/06 00:47:54;;;;;;;2.85;1.80;;;;;;;19.21;45.95;100669.06;4635606;30;20423;-61
2023/12/06 00:50:21;;;;;;;2.70;2.00;;;;;;;19.20;45.81;100671.88;4636629;30;20083;-61
2023/12/06 00:52:49;;;;;;;2.97;2.00;;;;;;;19.20;45.77;100669.19;4636821;30;20054;-61
2023/12/06 00:55:16;;;;;;;2.70;2.00;;;;;;;19.20;45.87;100674.56;4635565;30;20055;-61
2023/12/06 00:57:44;;;;;;;2.88;2.08;;;;;;;19.19;45.88;100665.66;4635194;30;20169;-64
2023/12/06 01:00:12;;;;;;;2.90;2.10;;;;;;;19.19;45.94;100673.72;4636336;30;20048;-65
2023/12/06 01:02:39;;;;;;;3.58;2.25;;;;;;;19.18;45.71;100677.38;4636555;30;20062;-65
2023/12/06 01:05:07;;;;;;;3.80;2.22;;;;;;;19.18;45.74;100672.00;4639262;30;20558;-65
2023/12/06 01:07:34;;;;;;;3.08;1.92;;;;;;;19.19;45.67;100678.22;4639282;30;20060;-64
2023/12/06 01:10:02;;;;;;;4.07;2.10;;;;;;;19.18;45.54;100679.22;4636525;30;20051;-65
2023/12/06 01:12:30;;;;;;;3.15;2.10;;;;;;;19.18;45.55;100671.16;4636503;30;20057;-65
2023/12/06 01:14:57;;;;;;;3.65;2.05;;;;;;;19.18;45.64;100673.84;4635133;30;20063;-65
2023/12/06 01:17:24;;;;;;;2.75;2.15;;;;;;;19.16;45.48;100668.63;4634881;30;20074;-64
2023/12/06 01:19:52;;;;;;;3.20;2.47;;;;;;;19.16;45.53;100671.31;4636344;30;20063;-65
2023/12/06 01:22:20;;;;;;;4.18;2.33;;;;;;;19.16;45.43;100670.44;4636034;30;20051;-65
2023/12/06 01:24:47;;;;;;;3.45;2.40;;;;;;;19.15;45.63;100669.59;4635048;30;20063;-65
2023/12/06 01:27:14;;;;;;;3.65;2.45;;;;;;;19.15;45.37;100676.78;4634984;30;20063;-61
2023/12/06 01:29:42;;;;;;;3.53;2.65;;;;;;;19.15;45.56;100672.28;4636244;30;20055;-62
2023/12/06 01:32:13;;;;;;;3.17;2.38;;;;;;;19.16;45.45;100681.16;4635746;30;20059;-62
2023/12/06 01:34:41;;;;;;;3.10;2.03;;;;;;;19.14;45.37;100691.22;4635135;30;20062;-62
2023/12/06 01:37:08;;;;;;;2.95;2.28;;;;;;;19.15;45.47;100690.22;4633112;30;20070;-65
2023/12/06 01:39:36;;;;;;;3.65;2.38;;;;;;;19.14;45.47;100683.16;4635556;30;20059;-65
2023/12/06 01:42:04;;;;;;;3.08;2.15;;;;;;;19.14;45.32;100684.00;4635419;30;20067;-65
2023/12/06 01:44:31;;;;;;;2.90;2.20;;;;;;;19.14;45.25;100685.84;4634634;30;20066;-65
2023/12/06 01:46:58;;;;;;;3.53;2.50;;;;;;;19.15;45.58;100690.22;4634847;30;20052;-61
2023/12/06 01:49:27;;;;;;;4.72;2.63;;;;;;;19.14;45.16;100680.47;4634952;30;20070;-61
2023/12/06 01:51:55;;;;;;;3.58;2.47;;;;;;;19.13;45.25;100690.34;4635536;30;20078;-61
2023/12/06 01:54:26;;;;;;;3.13;2.15;;;;;;;19.13;45.27;100689.50;4634295;30;20059;-61
2023/12/06 01:56:55;;;;;;;4.10;1.98;;;;;;;19.14;45.31;100680.47;4644148;30;20077;-62
2023/12/06 01:59:24;;;;;;;4.57;2.60;;;;;;;19.13;45.11;100668.03;4637400;30;20059;-61
2023/12/06 02:01:51;;;;;;;3.58;2.25;;;;;;;19.12;45.02;100672.56;4643978;30;20062;-62
2023/12/06 02:04:19;;;;;;;4.00;2.60;;;;;;;19.12;45.02;100667.19;4634653;30;20063;-61
2023/12/06 02:06:47;;;;;;;2.97;2.08;;;;;;;19.13;44.94;100668.03;4634817;30;20055;-64
2023/12/06 02:09:15;;;;;;;3.50;2.40;;;;;;;19.12;45.02;100661.84;4637302;30;20530;-64
2023/12/06 02:11:43;;;;;;;3.28;2.10;;;;;;;19.12;45.27;100663.63;4625713;30;20060;-64
2023/12/06 02:14:10;;;;;;;3.22;2.30;;;;;;;19.11;44.99;100662.78;4644393;30;20522;-64
2023/12/06 02:16:38;;;;;;;3.17;2.60;;;;;;;19.11;45.06;100661.94;4636756;30;20054;-64
2023/12/06 02:19:09;;;;;;;3.60;2.67;;;;;;;19.11;44.98;100664.63;4637298;30;20062;-64
2023/12/06 02:21:37;;;;;;;3.65;2.70;;;;;;;19.12;45.02;100660.97;4625960;30;20066;-64
2023/12/06 02:24:05;;;;;;;3.03;2.53;;;;;;;19.10;45.06;100663.78;4634674;30;20066;-64
2023/12/06 02:26:32;;;;;;;2.60;2.17;;;;;;;19.10;45.01;100663.78;4634282;30;20062;-64
2023/12/06 02:28:59;;;;;;;3.40;2.42;;;;;;;19.11;45.04;100660.13;4636995;30;20050;-64
2023/12/06 02:31:28;;;;;;;2.90;2.20;;;;;;;19.10;45.02;100654.88;4634407;30;20062;-64
2023/12/06 02:33:59;;;;;;;3.10;2.30;;;;;;;19.09;44.88;100651.38;4634258;30;20067;-64
2023/12/06 02:36:29;;;;;;;3.42;2.38;;;;;;;19.09;44.84;100654.03;4634958;30;20066;-62
2023/12/06 02:38:57;;;;;;;3.35;2.38;;;;;;;19.08;44.88;100649.69;4635687;30;20067;-61
2023/12/06 02:41:26;;;;;;;2.90;2.10;;;;;;;19.09;45.04;100642.47;4644492;30;20062;-62
2023/12/06 02:43:53;;;;;;;3.80;2.05;;;;;;;19.07;44.89;100639.06;4638707;30;20055;-62
2023/12/06 02:46:20;;;;;;;4.18;2.90;;;;;;;19.07;44.85;100641.75;4635284;30;20052;-62
2023/12/06 02:48:48;;;;;;;2.97;2.28;;;;;;;19.06;44.76;100640.91;4638339;30;20055;-62
2023/12/06 02:51:15;;;;;;;3.60;2.58;;;;;;;19.07;44.69;100642.59;4637326;30;20086;-62
2023/12/06 02:53:43;;;;;;;3.38;2.60;;;;;;;19.06;44.72;100640.03;4637373;30;20063;-62
2023/12/06 02:56:10;;;;;;;2.75;2.15;;;;;;;19.06;44.58;100640.03;4638235;30;20060;-64
2023/12/06 02:58:38;;;;;;;4.82;3.00;;;;;;;19.05;44.82;100636.53;4638653;30;20062;-65
2023/12/06 03:01:05;;;;;;;3.85;2.58;;;;;;;19.05;44.69;100633.00;4637188;30;20051;-65
2023/12/06 03:03:33;;;;;;;3.20;2.45;;;;;;;19.05;44.60;100628.47;4647009;30;20426;-65
2023/12/06 03:06:00;;;;;;;3.92;2.80;;;;;;;19.04;44.57;100634.81;4638626;30;20067;-61
2023/12/06 03:08:28;;;;;;;5.20;2.42;;;;;;;19.04;44.55;100634.81;4638834;30;20059;-62
2023/12/06 03:10:55;;;;;;;3.70;2.85;;;;;;;19.04;44.62;100624.09;4637188;30;20052;-62
2023/12/06 03:13:22;;;;;;;3.58;2.75;;;;;;;19.04;44.48;100616.03;4637029;30;20062;-62
2023/12/06 03:15:50;;;;;;;4.03;2.55;;;;;;;19.03;44.47;100619.69;4638067;30;20074;-64
2023/12/06 03:18:18;;;;;;;3.45;2.00;;;;;;;19.02;44.55;100629.56;4638907;30;20511;-64
2023/12/06 03:20:45;;;;;;;5.05;2.42;;;;;;;19.03;44.72;100630.41;4636938;30;20059;-64
2023/12/06 03:23:13;;;;;;;3.10;2.38;;;;;;;19.03;44.47;100627.75;4637007;30;20082;-64
2023/12/06 03:25:41;;;;;;;3.42;2.40;;;;;;;19.02;44.55;100626.88;4638342;30;20079;-62
2023/12/06 03:28:08;;;;;;;3.42;2.25;;;;;;;19.01;44.31;100622.53;4638238;30;20069;-61
2023/12/06 03:30:35;;;;;;;3.40;2.38;;;;;;;19.01;44.40;100627.88;4636884;30;20063;-62
2023/12/06 03:33:03;;;;;;;3.33;2.60;;;;;;;19.01;44.36;100627.88;4636869;30;20062;-62
2023/12/06 03:35:31;;;;;;;3.78;2.70;;;;;;;19.02;44.49;100626.88;4637660;30;20060;-63
2023/12/06 03:37:58;;;;;;;4.07;2.95;;;;;;;19.02;44.36;100618.84;4638380;30;20066;-62
2023/12/06 03:40:25;;;;;;;3.95;2.70;;;;;;;19.02;44.43;100623.38;4636519;30;20452;-62
2023/12/06 03:42:53;;;;;;;3.25;2.40;;;;;;;19.02;44.43;100618.00;4636411;30;20058;-62
2023/12/06 03:45:21;;;;;;;3.28;2.45;;;;;;;19.02;44.42;100618.00;4637437;30;20055;-61
2023/12/06 03:47:50;;;;;;;3.38;2.67;;;;;;;19.02;44.61;100612.63;4637851;30;20415;-64
2023/12/06 03:50:17;;;;;;;3.47;2.50;;;;;;;19.00;44.64;100615.47;4636697;30;20400;-65
2023/12/06 03:52:44;;;;;;;4.07;2.70;;;;;;;19.01;44.53;100616.31;4646368;30;20058;-65
2023/12/06 03:55:12;;;;;;;3.20;2.28;;;;;;;19.00;44.39;100602.06;4638191;30;20059;-65
2023/12/06 03:57:39;;;;;;;2.88;2.20;;;;;;;19.00;44.68;100601.22;4637997;30;20058;-65
2023/12/06 04:00:07;;;;;;;3.45;2.22;;;;;;;19.00;44.60;100601.22;4635794;30;20518;-65
2023/12/06 04:02:38;;;;;;;4.40;2.47;;;;;;;18.99;44.57;100594.97;4636214;30;20058;-65
2023/12/06 04:05:05;;;;;;;3.08;2.30;;;;;;;19.00;44.52;100598.53;4637591;30;20055;-65
2023/12/06 04:07:33;;;;;;;2.97;2.28;;;;;;;18.99;44.69;100591.44;4637326;30;20054;-62
2023/12/06 04:10:00;;;;;;;4.95;2.45;;;;;;;18.99;44.52;100591.44;4636261;30;20063;-62
2023/12/06 04:12:28;;;;;;;3.60;2.50;;;;;;;18.98;44.59;100595.94;4636326;30;20122;-62
2023/12/06 04:14:56;;;;;;;3.60;2.30;;;;;;;18.97;44.50;100605.00;4637655;30;20063;-62
2023/12/06 04:17:23;;;;;;;2.45;2.03;;;;;;;18.97;44.44;100605.00;4637676;30;20066;-62
2023/12/06 04:19:51;;;;;;;3.60;2.60;;;;;;;18.97;44.62;100606.84;4636382;30;20055;-62
2023/12/06 04:22:19;;;;;;;3.22;2.35;;;;;;;18.97;44.53;100601.47;4636479;30;20502;-62
2023/12/06 04:24:46;;;;;;;3.20;2.38;;;;;;;18.96;44.58;100600.63;4637745;30;20059;-62
2023/12/06 04:27:14;;;;;;;3.25;2.20;;;;;;;18.96;44.46;100608.66;4637035;30;20055;-62
2023/12/06 04:29:41;;;;;;;3.28;2.50;;;;;;;18.96;44.34;100610.50;4636031;30;20058;-62
2023/12/06 04:32:08;;;;;;;4.35;2.60;;;;;;;18.95;44.54;100612.31;4636189;30;20055;-62
2023/12/06 04:34:47;;;;;;;3.40;2.30;;;;;;;18.95;44.38;100603.41;4637757;30;20063;-62
2023/12/06 04:37:14;;;;;;;3.67;2.65;;;;;;;18.94;44.52;100604.41;4626567;30;20078;-64
2023/12/06 04:39:42;;;;;;;3.45;2.08;;;;;;;18.94;44.25;100609.78;4635966;30;20055;-65
2023/12/06 04:42:09;;;;;;;3.22;2.20;;;;;;;18.94;44.25;100604.41;4635477;30;20051;-65
2023/12/06 04:44:37;;;;;;;3.22;2.15;;;;;;;18.93;44.35;100619.66;4638376;30;20491;-65
2023/12/06 04:47:05;;;;;;;3.05;2.22;;;;;;;18.92;44.28;100612.59;4635582;30;20055;-62
2023/12/06 04:49:32;;;;;;;3.58;2.55;;;;;;;18.93;44.40;100606.25;4635422;30;20051;-62
2023/12/06 04:52:00;;;;;;;3.45;2.38;;;;;;;18.93;44.28;100608.94;4635319;30;20100;-62
2023/12/06 04:54:28;;;;;;;3.17;2.15;;;;;;;18.93;44.36;100614.28;4638277;30;20047;-62
2023/12/06 04:56:55;;;;;;;3.90;2.88;;;;;;;18.93;44.24;100616.97;4635669;30;20066;-64
2023/12/06 04:59:23;;;;;;;3.78;2.67;;;;;;;18.93;44.35;100619.66;4635414;30;20062;-65
2023/12/06 05:01:50;;;;;;;3.25;2.45;;;;;;;18.94;44.32;100625.88;4635218;30;20058;-65
2023/12/06 05:04:17;;;;;;;3.47;2.55;;;;;;;18.91;44.21;100621.59;4638193;30;20069;-65
2023/12/06 05:06:45;;;;;;;3.85;2.53;;;;;;;18.93;44.19;100616.97;4635277;30;20055;-62
2023/12/06 05:09:12;;;;;;;4.07;2.60;;;;;;;18.93;44.17;100616.13;4635134;30;20066;-62
2023/12/06 05:11:39;;;;;;;4.13;2.28;;;;;;;18.93;44.06;100618.81;4635115;30;20066;-62
2023/12/06 05:14:07;;;;;;;2.97;1.95;;;;;;;18.92;44.25;100623.34;4637863;30;20080;-62
2023/12/06 05:16:34;;;;;;;3.58;2.50;;;;;;;18.91;44.06;100618.94;4647425;30;20063;-62
2023/12/06 05:19:02;;;;;;;3.25;2.53;;;;;;;18.92;44.08;100625.13;4635360;30;20066;-62
2023/12/06 05:21:29;;;;;;;3.20;2.38;;;;;;;18.91;44.11;100618.09;4634774;30;20059;-61
2023/12/06 05:23:56;;;;;;;3.15;2.00;;;;;;;18.92;44.17;100619.78;4637776;30;20057;-61
2023/12/06 05:26:26;;;;;;;3.40;2.58;;;;;;;18.92;44.13;100623.34;4625930;30;20431;-64
2023/12/06 05:28:54;;;;;;;2.72;1.95;;;;;;;18.91;44.13;100620.78;4635089;30;20066;-65
2023/12/06 05:31:21;;;;;;;3.33;2.25;;;;;;;18.91;44.06;100626.13;4635226;30;20403;-65
2023/12/06 05:33:49;;;;;;;3.63;1.95;;;;;;;18.91;44.05;100618.09;4637699;30;20062;-65
2023/12/06 05:36:16;;;;;;;3.30;2.40;;;;;;;18.90;44.00;100621.75;4635099;30;20411;-64
2023/12/06 05:38:44;;;;;;;2.97;2.22;;;;;;;18.90;44.10;100617.25;4634774;30;20063;-64
2023/12/06 05:41:11;;;;;;;3.20;2.30;;;;;;;18.91;43.92;100621.59;4634824;30;20058;-65
2023/12/06 05:43:39;;;;;;;3.45;2.58;;;;;;;18.89;43.96;100623.59;4637665;30;20059;-65
2023/12/06 05:46:06;;;;;;;3.50;2.58;;;;;;;18.90;44.02;100629.81;4644789;30;20058;-62
2023/12/06 05:48:34;;;;;;;3.00;2.03;;;;;;;18.89;44.03;100634.31;4640201;30;20062;-62
2023/12/06 05:51:01;;;;;;;3.20;2.40;;;;;;;18.89;43.88;100625.44;4634635;30;20059;-62
2023/12/06 05:53:29;;;;;;;3.70;2.33;;;;;;;18.89;43.98;100634.31;4637437;30;20054;-62
2023/12/06 05:55:56;;;;;;;2.90;2.10;;;;;;;18.88;43.85;100632.63;4634862;30;20086;-62
2023/12/06 05:58:23;;;;;;;3.65;2.42;;;;;;;18.88;43.98;100631.75;4634563;30;20051;-63
2023/12/06 06:00:52;;;;;;;3.40;2.25;;;;;;;18.88;43.79;100629.06;4634689;30;20059;-62
2023/12/06 06:03:19;;;;;;;3.80;2.33;;;;;;;18.88;44.02;100632.63;4637184;30;20058;-62
2023/12/06 06:05:47;;;;;;;2.90;2.20;;;;;;;18.87;43.75;100630.06;4634362;30;20059;-64
2023/12/06 06:08:14;;;;;;;3.28;2.33;;;;;;;18.87;43.94;100632.75;4634773;30;20052;-65
2023/12/06 06:10:42;;;;;;;4.03;2.08;;;;;;;18.87;43.89;100641.63;4634658;30;20482;-65
2023/12/06 06:13:10;;;;;;;3.42;2.70;;;;;;;18.86;43.77;100636.41;4640935;30;20046;-65
2023/12/06 06:15:38;;;;;;;3.00;2.10;;;;;;;18.85;43.78;100630.22;4634402;30;20063;-64
2023/12/06 06:18:07;;;;;;;3.08;2.30;;;;;;;18.86;43.81;100639.09;4634438;30;20082;-62
2023/12/06 06:20:37;;;;;;;3.50;2.28;;;;;;;18.85;43.73;100643.63;4635128;30;20055;-62
2023/12/06 06:23:04;;;;;;;3.85;2.25;;;;;;;18.85;43.73;100646.31;4637738;30;20058;-62
2023/12/06 06:25:33;;;;;;;3.70;1.83;;;;;;;18.85;43.75;100643.63;4637905;30;20051;-63
2023/12/06 06:28:00;;;;;;;3.72;2.30;;;;;;;18.85;43.58;100651.66;4637653;30;20056;-65
2023/12/06 06:30:28;;;;;;;4.30;2.47;;;;;;;18.85;43.65;100651.66;4638205;30;20056;-65
2023/12/06 06:32:56;;;;;;;3.00;2.05;;;;;;;18.85;43.59;100657.03;4639800;30;20054;-65
2023/12/06 06:35:24;;;;;;;4.43;2.40;;;;;;;18.86;43.52;100664.09;4637641;30;20066;-65
2023/12/06 06:37:53;;;;;;;2.83;1.83;;;;;;;18.87;43.44;100671.16;4637147;30;20534;-65
2023/12/06 06:40:23;;;;;;;3.50;2.45;;;;;;;18.86;43.47;100672.13;4651103;30;20059;-65
2023/12/06 06:42:54;;;;;;;3.42;2.70;;;;;;;18.87;43.57;100679.19;4638130;30;20047;-65
2023/12/06 06:45:22;;;;;;;3.38;2.25;;;;;;;18.86;43.51;100676.66;4637576;30;20062;-65
2023/12/06 06:47:50;;;;;;;2.70;1.88;;;;;;;18.85;43.42;100681.16;4637806;30;20155;-65
2023/12/06 06:50:18;;;;;;;3.38;2.08;;;;;;;18.87;43.59;100678.34;4644526;30;20090;-64
2023/12/06 06:52:48;;;;;;;3.22;2.40;;;;;;;18.85;43.41;100683.84;4637860;30;20052;-64
2023/12/06 06:55:15;;;;;;;3.58;2.13;;;;;;;18.85;43.55;100683.84;4637216;30;20062;-64
2023/12/06 06:57:43;;;;;;;2.92;1.77;;;;;;;18.86;43.45;100690.06;4637603;30;20059;-64
2023/12/06 07:00:12;;;;;;;3.03;2.13;;;;;;;18.85;43.70;100699.09;4638010;30;20055;-64
2023/12/06 07:02:41;;;;;;;3.45;2.22;;;;;;;18.84;43.53;100687.53;4637392;30;20051;-64
2023/12/06 07:05:12;;;;;;;3.90;2.15;;;;;;;18.84;43.56;100690.22;4636998;30;20064;-64
2023/12/06 07:07:41;;;;;;;3.70;2.47;;;;;;;18.84;43.55;100692.88;4637486;30;20404;-63
2023/12/06 07:10:09;;;;;;;3.08;2.05;;;;;;;18.84;43.75;100700.94;4639819;30;20070;-65
2023/12/06 07:12:38;;;;;;;2.80;1.83;;;;;;;18.84;43.93;100700.94;4628019;30;20058;-63
2023/12/06 07:15:06;;;;;;;3.03;1.98;;;;;;;18.84;43.87;100700.06;4647166;30;20059;-63
2023/12/06 07:17:33;;;;;;;4.45;2.03;;;;;;;18.84;43.91;100698.25;4639392;30;20082;-60
2023/12/06 07:20:00;;;;;;;3.28;2.10;;;;;;;18.85;43.84;100707.16;4640397;30;20396;-60
2023/12/06 07:22:28;;;;;;;3.15;2.00;;;;;;;18.85;43.89;100708.00;4636758;30;20055;-60
2023/12/06 07:24:56;;;;;;;4.05;2.65;;;;;;;18.85;43.86;100704.47;4637062;30;20059;-60
2023/12/06 07:27:23;;;;;;;5.80;2.20;;;;;;;18.85;43.86;100710.69;4637167;30;20055;-60
2023/12/06 07:29:51;;;;;;;3.55;2.28;;;;;;;18.86;43.75;100716.88;4640213;30;20055;-59
2023/12/06 07:32:19;;;;;;;5.10;2.45;;;;;;;18.87;43.83;100723.94;4637298;30;20094;-59
2023/12/06 07:34:46;;;;;;;3.58;1.98;;;;;;;18.86;43.72;100725.78;4635990;30;20062;-59
2023/12/06 07:37:20;;;;;;;3.20;2.25;;;;;;;18.86;43.66;100728.47;4637207;30;20070;-65
2023/12/06 07:39:48;;;;;;;3.50;2.53;;;;;;;18.87;43.78;100723.94;4638943;30;20059;-65
2023/12/06 07:42:16;;;;;;;3.97;2.38;;;;;;;18.86;43.59;100730.28;4637385;30;20070;-63
2023/12/06 07:44:43;;;;;;;4.65;3.28;;;;;;;18.86;43.71;100727.63;4637088;30;20054;-63
2023/12/06 07:47:10;;;;;;;3.75;2.40;;;;;;;18.84;43.80;100722.41;4637102;30;20085;-63
2023/12/06 07:49:38;;;;;;;3.60;2.28;;;;;;;18.84;43.64;100727.75;4639212;30;20051;-64
2023/12/06 07:52:06;;;;;;;3.88;2.40;;;;;;;18.85;43.69;100728.59;4637052;30;20480;-64
2023/12/06 07:54:33;;;;;;;4.30;2.35;;;;;;;18.85;43.53;100729.44;4636654;30;20055;-64
2023/12/06 07:57:01;;;;;;;3.33;2.20;;;;;;;18.86;43.57;100733.81;4637006;30;20086;-58
2023/12/06 07:59:28;;;;;;;4.65;2.88;;;;;;;18.85;43.51;100734.81;4638718;30;20530;-59
2023/12/06 08:01:56;;;;;;;4.07;2.58;;;;;;;18.86;43.49;100730.28;4636442;30;20055;-59
2023/12/06 08:04:23;;;;;;;4.90;2.63;;;;;;;18.88;43.40;100741.72;4636311;30;20078;-58
2023/12/06 08:06:52;;;;;;;3.95;2.47;;;;;;;18.88;43.33;100736.38;4636676;30;20070;-58
2023/12/06 08:09:20;;;;;;;5.65;2.60;;;;;;;18.88;43.27;100733.69;4650730;30;20059;-59
2023/12/06 08:11:48;;;;;;;4.07;2.63;;;;;;;18.90;42.97;100737.09;4636528;30;20059;-58
2023/12/06 08:14:15;;;;;;;4.15;2.60;;;;;;;18.92;42.66;100752.09;4636332;30;20051;-58
2023/12/06 08:16:42;;;;;;;3.38;2.47;;;;;;;18.94;42.60;100754.63;4637143;30;20055;-58
2023/12/06 08:19:10;;;;;;;5.57;2.65;;;;;;;18.94;42.30;100751.94;4638393;30;20072;-58
2023/12/06 08:21:37;;;;;;;3.90;2.78;;;;;;;18.95;42.04;100745.59;4636312;30;20062;-58
2023/12/06 08:24:06;;;;;;;4.03;2.70;;;;;;;18.96;41.82;100756.22;4636147;30;20078;-58
2023/12/06 08:26:34;;;;;;;3.78;2.40;;;;;;;18.97;41.76;100749.88;4636810;30;20997;-63
2023/12/06 08:29:02;;;;;;;4.28;2.70;;;;;;;18.97;41.90;100755.22;4637643;30;20055;-63
2023/12/06 08:31:29;;;;;;;3.85;2.60;;;;;;;18.99;41.60;100752.41;4648122;30;20066;-63
2023/12/06 08:33:57;;;;;;;3.45;2.47;;;;;;;18.99;41.65;100755.09;4635828;30;20055;-63
2023/12/06 08:36:25;;;;;;;4.57;2.80;;;;;;;18.99;41.59;100757.75;4637002;30;20074;-64
2023/12/06 08:38:53;;;;;;;4.80;2.72;;;;;;;19.01;41.33;100761.19;4637259;30;20062;-63
2023/12/06 08:41:22;;;;;;;4.25;2.40;;;;;;;19.01;41.44;100767.41;4635438;30;20431;-63
2023/12/06 08:43:49;;;;;;;3.75;2.97;;;;;;;19.01;41.17;100767.41;4635581;30;20412;-63
2023/12/06 08:46:18;;;;;;;3.97;2.83;;;;;;;19.03;41.36;100764.56;4637009;30;20059;-60
2023/12/06 08:48:45;;;;;;;5.70;2.70;;;;;;;19.02;41.44;100758.34;4636644;30;20069;-60
2023/12/06 08:51:14;;;;;;;4.25;2.70;;;;;;;19.03;41.62;100759.19;4635569;30;20058;-60
2023/12/06 08:53:41;;;;;;;3.53;2.35;;;;;;;19.03;41.46;100764.56;4635631;30;20492;-60
2023/12/06 08:56:08;;;;;;;4.93;2.83;;;;;;;19.04;41.54;100763.63;4636957;30;20051;-64
2023/12/06 08:58:36;;;;;;;7.13;2.88;;;;;;;19.05;41.46;100772.50;4636736;30;20050;-64
2023/12/06 09:01:03;;;;;;;4.22;2.30;;;;;;;19.04;41.48;100779.72;4635622;30;20486;-64
2023/12/06 09:03:31;;;;;;;3.88;2.42;;;;;;;19.05;41.32;100780.56;4635189;30;20056;-64
2023/12/06 09:05:58;;;;;;;3.28;2.58;;;;;;;19.04;41.41;100785.06;4636663;30;20420;-64
2023/12/06 09:08:27;;;;;;;4.65;2.42;;;;;;;19.06;41.43;100779.56;4636791;30;20076;-64
2023/12/06 09:10:54;;;;;;;3.35;2.28;;;;;;;19.06;40.96;100788.47;4635200;30;20051;-64
2023/12/06 09:13:22;;;;;;;3.95;2.40;;;;;;;19.07;40.92;100789.31;4635435;30;20499;-64
2023/12/06 09:15:49;;;;;;;4.70;2.55;;;;;;;19.07;40.64;100792.84;4635606;30;20066;-60
2023/12/06 09:18:16;;;;;;;4.25;2.78;;;;;;;19.06;40.65;100806.41;4635350;30;20059;-59
2023/12/06 09:20:44;;;;;;;4.82;3.15;;;;;;;19.07;40.58;100795.53;4635163;30;20511;-60
2023/12/06 09:23:11;;;;;;;4.50;2.63;;;;;;;19.07;40.49;100800.03;4635036;30;20511;-59
2023/12/06 09:25:39;;;;;;;4.18;2.83;;;;;;;19.06;40.63;100792.97;4636678;30;20047;-64
2023/12/06 09:28:06;;;;;;;5.55;3.03;;;;;;;19.07;40.56;100789.31;4636294;30;20431;-64
2023/12/06 09:30:34;;;;;;;3.67;2.58;;;;;;;19.06;40.38;100798.34;4634971;30;20063;-64
2023/12/06 09:33:01;;;;;;;3.90;3.00;;;;;;;19.07;40.28;100805.41;4634761;30;20062;-64
2023/12/06 09:35:30;;;;;;;4.78;3.08;;;;;;;19.05;40.23;100802.88;4636507;30;20424;-64
2023/12/06 09:37:57;;;;;;;3.50;2.75;;;;;;;19.07;40.11;100808.09;4648267;30;20427;-60
2023/12/06 09:40:25;;;;;;;4.75;2.80;;;;;;;19.06;40.26;100809.94;4634709;30;20086;-60
2023/12/06 09:43:00;;;;;;;3.67;2.67;;;;;;;19.06;40.38;100801.03;4634795;30;20059;-59
2023/12/06 09:45:29;;;;;;;3.83;2.80;;;;;;;19.07;40.53;100806.25;4636711;30;20062;-60
2023/12/06 09:47:57;;;;;;;4.63;3.03;;;;;;;19.08;40.58;100813.34;4643952;30;20062;-59
2023/12/06 09:50:26;;;;;;;3.75;2.90;;;;;;;19.08;40.27;100807.09;4634761;30;20059;-59
2023/12/06 09:52:54;;;;;;;6.35;3.25;;;;;;;19.07;40.11;100806.25;4634683;30;20066;-64
2023/12/06 09:55:23;;;;;;;5.35;4.03;;;;;;;19.07;39.72;100800.88;4637556;30;20499;-63
2023/12/06 09:57:52;;;;;;;5.72;4.53;;;;;;;19.05;39.24;100800.19;4633802;30;20059;-63
2023/12/06 10:00:21;;;;;;;4.85;3.47;;;;;;;19.06;39.43;100801.88;4634654;30;20062;-64
2023/12/06 10:02:53;;;;;;;5.97;4.82;;;;;;;19.01;39.27;100799.59;4634477;30;20056;-65
2023/12/06 10:05:21;;;;;;;8.03;5.23;;;;;;;18.95;39.10;100801.94;4636647;30;20062;-64
2023/12/06 10:07:49;;;;;;;8.60;5.70;;;;;;;18.90;38.28;100796.13;4634813;30;20055;-59
2023/12/06 10:10:21;;;;;;;8.23;6.93;;;;;;;18.83;37.80;100797.59;4634707;30;20051;-60
2023/12/06 10:12:52;;;;;;;9.60;7.43;;;;;;;18.75;37.48;100800.94;4635887;30;20055;-60
2023/12/06 10:15:20;;;;;;;8.57;7.68;;;;;;;18.66;36.96;100789.13;4635319;30;20058;-60
2023/12/06 10:17:48;;;;;;;8.95;7.63;;;;;;;18.58;36.61;100791.59;4634855;30;20059;-57
2023/12/06 10:20:17;;;;;;;9.43;7.32;;;;;;;18.56;36.76;100790.88;4634489;30;20059;-57
2023/12/06 10:22:45;;;;;;;8.95;6.65;;;;;;;18.58;37.45;100786.22;4635185;30;20052;-57
2023/12/06 10:25:12;;;;;;;6.72;5.20;;;;;;;18.62;38.17;100793.03;4635330;30;20067;-58
2023/12/06 10:27:43;;;;;;;5.70;4.30;;;;;;;18.65;38.49;100787.41;4634915;30;20048;-58
2023/12/06 10:30:11;;;;;;;5.95;4.55;;;;;;;18.69;38.55;100788.88;4634676;30;20059;-57
2023/12/06 10:32:40;;;;;;;4.88;3.92;;;;;;;18.73;38.98;100786.81;4636733;30;20063;-57
2023/12/06 10:35:09;;;;;;;6.45;3.78;;;;;;;18.75;39.10;100788.38;4642732;30;20054;-56
2023/12/06 10:37:37;;;;;;;4.30;3.30;;;;;;;18.79;39.30;100780.91;4634547;30;20090;-61
2023/12/06 10:40:11;;;;;;;4.15;3.15;;;;;;;18.82;39.34;100787.88;4634247;30;20063;-62
2023/12/06 10:42:48;;;;;;;7.47;3.42;;;;;;;18.84;39.53;100781.41;4641489;30;20055;-62
2023/12/06 10:45:16;;;;;;;5.05;2.95;;;;;;;18.86;39.64;100775.91;4634286;30;20062;-62
2023/12/06 10:47:47;;;;;;;3.55;2.72;;;;;;;18.88;39.78;100779.28;4634288;30;20059;-61
2023/12/06 10:50:16;;;;;;;3.80;2.85;;;;;;;18.89;39.73;100776.50;4635595;30;20082;-62
2023/12/06 10:52:46;;;;;;;3.35;2.28;;;;;;;18.91;39.70;100776.34;4634769;30;20070;-62
2023/12/06 10:55:16;;;;;;;4.85;3.08;;;;;;;18.90;39.73;100772.81;4634277;30;20063;-62
2023/12/06 10:57:44;;;;;;;5.63;3.80;;;;;;;18.91;39.75;100768.31;4634344;30;20055;-58
2023/12/06 11:00:13;;;;;;;4.95;3.45;;;;;;;18.92;39.72;100767.31;4636613;30;20058;-57
2023/12/06 11:02:41;;;;;;;6.90;4.97;;;;;;;18.91;39.75;100758.41;4624975;30;20420;-58
2023/12/06 11:05:12;;;;;;;12.10;9.38;;;;;;;18.92;39.57;100759.25;4639086;30;20070;-57
2023/12/06 11:08:10;;;;;;;17.13;13.80;;;;;;;18.92;39.55;100757.47;4636135;30;20059;-57
2023/12/06 11:11:05;;;;;;;19.27;17.17;;;;;;;18.93;39.59;100752.94;4636947;30;20598;-57
2023/12/06 11:13:45;;;;;;;19.67;16.75;;;;;;;18.93;39.62;100761.00;4637014;30;20424;-58
2023/12/06 11:16:34;;;;;;;18.42;16.48;;;;;;;18.94;39.69;100765.38;4644875;30;20065;-61
2023/12/06 11:19:02;;;;;;;20.27;17.08;;;;;;;18.93;39.81;100761.84;4637017;30;20070;-62
2023/12/06 11:21:30;;;;;;;19.40;15.52;;;;;;;18.93;39.53;100758.31;4637615;30;20062;-62
2023/12/06 11:23:59;;;;;;;16.98;14.23;;;;;;;18.93;39.02;100769.03;4639504;30;20518;-62
2023/12/06 11:26:26;;;;;;;16.25;13.15;;;;;;;18.93;38.98;100763.66;4636923;30;20055;-57
2023/12/06 11:28:55;;;;;;;14.60;12.93;;;;;;;18.92;38.76;100767.31;4637205;30;20066;-56